sensor_id;sensor_type;location;lat;lon;timestamp;temperature;humidity
9762;DHT22;4920;49.594;11.022;2022-08-04T00:01:16;21.50;1.00
9762;DHT22;4920;49.594;11.022;2022-08-04T00:03:52;21.40;1.00
9762;DHT22;4920;49.594;11.022;2022-08-04T00:06:33;21.40;1.00
9762;DHT22;4920;49.594;11.022;2022-08-04T00:09:09;21.30;1.00
9762;DHT22;4920;49.594;11.022;2022-08-04T00:11:44;21.30;1.00
9762;DHT22;4920;49.594;11.022;2022-08-04T00:14:14;21.20;1.00
9762;DHT22;4920;49.594;11.022;2022-08-04T00:16:46;21.20;1.00
9762;DHT22;4920;49.594;11.022;2022-08-04T00:19:17;21.20;1.00
9762;DHT22;4920;49.594;11.022;2022-08-04T00:21:51;21.10;1.00
9762;DHT22;4920;49.594;11.022;2022-08-04T00:24:21;21.10;1.00
9762;DHT22;4920;49.594;11.022;2022-08-04T00:26:52;21.00;1.00
9762;DHT22;4920;49.594;11.022;2022-08-04T00:29:21;20.90;1.00
9762;DHT22;4920;49.594;11.022;2022-08-04T00:31:50;20.90;1.00
9762;DHT22;4920;49.594;11.022;2022-08-04T00:34:25;20.90;1.00
9762;DHT22;4920;49.594;11.022;2022-08-04T00:36:56;20.80;1.00
9762;DHT22;4920;49.594;11.022;2022-08-04T00:39:25;20.80;1.00
9762;DHT22;4920;49.594;11.022;2022-08-04T00:42:22;20.80;1.00
9762;DHT22;4920;49.594;11.022;2022-08-04T00:45:28;20.80;1.00
9762;DHT22;4920;49.594;11.022;2022-08-04T00:48:27;20.70;1.00
9762;DHT22;4920;49.594;11.022;2022-08-04T00:51:07;20.70;1.00
9762;DHT22;4920;49.594;11.022;2022-08-04T00:53:52;20.60;1.00
9762;DHT22;4920;49.594;11.022;2022-08-04T00:56:54;20.60;1.00
9762;DHT22;4920;49.594;11.022;2022-08-04T00:59:36;20.50;1.00
9762;DHT22;4920;49.594;11.022;2022-08-04T01:02:15;20.50;1.00
9762;DHT22;4920;49.594;11.022;2022-08-04T01:04:49;20.50;1.00
9762;DHT22;4920;49.594;11.022;2022-08-04T01:07:45;20.50;1.00
9762;DHT22;4920;49.594;11.022;2022-08-04T01:10:23;20.40;1.00
9762;DHT22;4920;49.594;11.022;2022-08-04T01:13:14;20.40;1.00
9762;DHT22;4920;49.594;11.022;2022-08-04T01:15:53;20.30;1.00
9762;DHT22;4920;49.594;11.022;2022-08-04T01:18:32;20.30;1.00
9762;DHT22;4920;49.594;11.022;2022-08-04T01:21:16;20.30;1.00
9762;DHT22;4920;49.594;11.022;2022-08-04T01:24:13;20.20;1.00
9762;DHT22;4920;49.594;11.022;2022-08-04T01:27:00;20.20;1.00
9762;DHT22;4920;49.594;11.022;2022-08-04T01:29:34;20.10;1.00
9762;DHT22;4920;49.594;11.022;2022-08-04T01:32:19;20.10;1.00
9762;DHT22;4920;49.594;11.022;2022-08-04T01:34:55;20.10;1.00
9762;DHT22;4920;49.594;11.022;2022-08-04T01:37:38;20.00;1.00
9762;DHT22;4920;49.594;11.022;2022-08-04T01:40:12;20.00;1.00
9762;DHT22;4920;49.594;11.022;2022-08-04T01:42:42;20.00;1.00
9762;DHT22;4920;49.594;11.022;2022-08-04T01:45:13;19.90;1.20
9762;DHT22;4920;49.594;11.022;2022-08-04T01:47:48;19.90;1.50
9762;DHT22;4920;49.594;11.022;2022-08-04T01:50:17;19.90;2.50
9762;DHT22;4920;49.594;11.022;2022-08-04T01:56:06;19.80;4.30
9762;DHT22;4920;49.594;11.022;2022-08-04T01:58:35;19.80;4.50
9762;DHT22;4920;49.594;11.022;2022-08-04T02:01:07;19.80;5.00
9762;DHT22;4920;49.594;11.022;2022-08-04T02:03:37;19.80;6.20
9762;DHT22;4920;49.594;11.022;2022-08-04T02:06:31;19.70;6.80
9762;DHT22;4920;49.594;11.022;2022-08-04T02:09:11;19.70;8.30
9762;DHT22;4920;49.594;11.022;2022-08-04T02:11:48;19.60;8.80
9762;DHT22;4920;49.594;11.022;2022-08-04T02:14:24;19.60;11.60
9762;DHT22;4920;49.594;11.022;2022-08-04T02:17:11;19.60;13.30
9762;DHT22;4920;49.594;11.022;2022-08-04T02:20:03;19.50;13.80
9762;DHT22;4920;49.594;11.022;2022-08-04T02:22:41;19.50;14.60
9762;DHT22;4920;49.594;11.022;2022-08-04T02:25:15;19.50;15.20
9762;DHT22;4920;49.594;11.022;2022-08-04T02:28:01;19.50;15.40
9762;DHT22;4920;49.594;11.022;2022-08-04T02:30:39;19.40;16.80
9762;DHT22;4920;49.594;11.022;2022-08-04T02:33:12;19.40;16.80
9762;DHT22;4920;49.594;11.022;2022-08-04T02:35:45;19.40;17.70
9762;DHT22;4920;49.594;11.022;2022-08-04T02:38:23;19.40;18.50
9762;DHT22;4920;49.594;11.022;2022-08-04T02:40:53;19.30;19.20
9762;DHT22;4920;49.594;11.022;2022-08-04T02:43:27;19.30;20.00
9762;DHT22;4920;49.594;11.022;2022-08-04T02:46:17;19.30;21.10
9762;DHT22;4920;49.594;11.022;2022-08-04T02:48:48;19.30;22.10
9762;DHT22;4920;49.594;11.022;2022-08-04T02:51:21;19.20;24.10
9762;DHT22;4920;49.594;11.022;2022-08-04T02:53:52;19.20;24.60
9762;DHT22;4920;49.594;11.022;2022-08-04T02:56:22;19.10;26.30
9762;DHT22;4920;49.594;11.022;2022-08-04T02:58:56;19.10;27.80
9762;DHT22;4920;49.594;11.022;2022-08-04T03:01:25;19.10;27.90
9762;DHT22;4920;49.594;11.022;2022-08-04T03:04:08;19.10;28.50
9762;DHT22;4920;49.594;11.022;2022-08-04T03:07:12;19.10;29.20
9762;DHT22;4920;49.594;11.022;2022-08-04T03:13:13;19.00;33.40
9762;DHT22;4920;49.594;11.022;2022-08-04T03:16:41;18.90;34.30
9762;DHT22;4920;49.594;11.022;2022-08-04T03:19:33;18.90;37.20
9762;DHT22;4920;49.594;11.022;2022-08-04T03:22:46;18.90;39.80
9762;DHT22;4920;49.594;11.022;2022-08-04T03:25:53;18.80;41.00
9762;DHT22;4920;49.594;11.022;2022-08-04T03:28:49;18.80;41.50
9762;DHT22;4920;49.594;11.022;2022-08-04T03:31:48;18.80;42.40
9762;DHT22;4920;49.594;11.022;2022-08-04T03:34:40;18.70;44.60
9762;DHT22;4920;49.594;11.022;2022-08-04T03:37:38;18.70;45.50
9762;DHT22;4920;49.594;11.022;2022-08-04T03:40:33;18.70;45.80
9762;DHT22;4920;49.594;11.022;2022-08-04T03:46:58;18.60;48.40
9762;DHT22;4920;49.594;11.022;2022-08-04T03:53:02;18.60;53.30
9762;DHT22;4920;49.594;11.022;2022-08-04T03:59:05;18.60;54.90
9762;DHT22;4920;49.594;11.022;2022-08-04T04:01:55;18.60;57.10
9762;DHT22;4920;49.594;11.022;2022-08-04T04:04:50;18.60;57.40
9762;DHT22;4920;49.594;11.022;2022-08-04T04:10:51;18.60;60.10
9762;DHT22;4920;49.594;11.022;2022-08-04T04:13:49;18.60;62.10
9762;DHT22;4920;49.594;11.022;2022-08-04T04:16:36;18.60;60.40
9762;DHT22;4920;49.594;11.022;2022-08-04T04:19:30;18.60;59.60
9762;DHT22;4920;49.594;11.022;2022-08-04T04:22:28;18.70;57.90
9762;DHT22;4920;49.594;11.022;2022-08-04T04:25:13;18.80;56.10
9762;DHT22;4920;49.594;11.022;2022-08-04T04:28:00;18.90;54.80
9762;DHT22;4920;49.594;11.022;2022-08-04T04:31:02;19.00;53.90
9762;DHT22;4920;49.594;11.022;2022-08-04T04:33:44;19.10;52.60
9762;DHT22;4920;49.594;11.022;2022-08-04T04:36:24;19.10;52.50
9762;DHT22;4920;49.594;11.022;2022-08-04T04:39:02;19.20;51.30
9762;DHT22;4920;49.594;11.022;2022-08-04T04:41:50;19.30;49.70
9762;DHT22;4920;49.594;11.022;2022-08-04T04:47:39;19.50;49.90
9762;DHT22;4920;49.594;11.022;2022-08-04T04:50:36;19.60;47.40
9762;DHT22;4920;49.594;11.022;2022-08-04T04:53:14;19.70;46.10
9762;DHT22;4920;49.594;11.022;2022-08-04T04:55:49;19.80;45.30
9762;DHT22;4920;49.594;11.022;2022-08-04T04:58:19;19.90;43.60
9762;DHT22;4920;49.594;11.022;2022-08-04T05:01:16;20.00;42.60
9762;DHT22;4920;49.594;11.022;2022-08-04T05:04:10;20.20;43.20
9762;DHT22;4920;49.594;11.022;2022-08-04T05:07:09;20.30;41.00
9762;DHT22;4920;49.594;11.022;2022-08-04T05:09:55;20.60;41.50
9762;DHT22;4920;49.594;11.022;2022-08-04T05:12:41;21.30;38.60
9762;DHT22;4920;49.594;11.022;2022-08-04T05:15:33;22.10;34.50
9762;DHT22;4920;49.594;11.022;2022-08-04T05:18:05;22.90;30.30
9762;DHT22;4920;49.594;11.022;2022-08-04T05:20:39;23.60;23.70
9762;DHT22;4920;49.594;11.022;2022-08-04T05:23:12;24.10;19.30
9762;DHT22;4920;49.594;11.022;2022-08-04T05:25:46;24.40;17.00
9762;DHT22;4920;49.594;11.022;2022-08-04T05:28:28;24.70;14.60
9762;DHT22;4920;49.594;11.022;2022-08-04T05:31:02;25.10;12.00
9762;DHT22;4920;49.594;11.022;2022-08-04T05:33:42;25.50;9.00
9762;DHT22;4920;49.594;11.022;2022-08-04T05:36:16;26.00;5.40
9762;DHT22;4920;49.594;11.022;2022-08-04T05:39:06;26.20;2.50
9762;DHT22;4920;49.594;11.022;2022-08-04T05:41:39;26.40;1.00
9762;DHT22;4920;49.594;11.022;2022-08-04T05:44:14;26.60;1.00
9762;DHT22;4920;49.594;11.022;2022-08-04T05:46:43;26.70;1.00
9762;DHT22;4920;49.594;11.022;2022-08-04T05:49:24;26.80;1.00
9762;DHT22;4920;49.594;11.022;2022-08-04T05:51:57;26.80;1.00
9762;DHT22;4920;49.594;11.022;2022-08-04T05:54:26;26.90;6.60
9762;DHT22;4920;49.594;11.022;2022-08-04T05:56:56;27.00;1.00
9762;DHT22;4920;49.594;11.022;2022-08-04T05:59:25;27.00;1.00
9762;DHT22;4920;49.594;11.022;2022-08-04T06:01:58;27.00;1.00
9762;DHT22;4920;49.594;11.022;2022-08-04T06:04:32;27.10;1.00
9762;DHT22;4920;49.594;11.022;2022-08-04T06:07:02;27.10;1.00
9762;DHT22;4920;49.594;11.022;2022-08-04T06:09:30;27.20;1.00
9762;DHT22;4920;49.594;11.022;2022-08-04T06:12:01;27.20;1.00
9762;DHT22;4920;49.594;11.022;2022-08-04T06:14:34;27.20;1.00
9762;DHT22;4920;49.594;11.022;2022-08-04T06:17:07;27.30;1.00
9762;DHT22;4920;49.594;11.022;2022-08-04T06:19:58;27.30;1.00
9762;DHT22;4920;49.594;11.022;2022-08-04T06:22:51;27.30;1.00
9762;DHT22;4920;49.594;11.022;2022-08-04T06:25:23;27.30;1.00
9762;DHT22;4920;49.594;11.022;2022-08-04T06:27:53;27.40;1.00
9762;DHT22;4920;49.594;11.022;2022-08-04T06:30:22;27.40;1.00
9762;DHT22;4920;49.594;11.022;2022-08-04T06:32:53;27.30;1.00
9762;DHT22;4920;49.594;11.022;2022-08-04T06:35:32;27.30;1.00
9762;DHT22;4920;49.594;11.022;2022-08-04T06:38:02;27.30;1.00
9762;DHT22;4920;49.594;11.022;2022-08-04T06:40:32;27.20;1.00
9762;DHT22;4920;49.594;11.022;2022-08-04T06:43:03;27.20;1.00
9762;DHT22;4920;49.594;11.022;2022-08-04T06:45:36;27.20;1.00
9762;DHT22;4920;49.594;11.022;2022-08-04T06:48:06;27.20;1.00
9762;DHT22;4920;49.594;11.022;2022-08-04T06:50:36;27.20;1.00
9762;DHT22;4920;49.594;11.022;2022-08-04T06:53:26;27.20;1.00
9762;DHT22;4920;49.594;11.022;2022-08-04T06:55:55;27.20;1.00
9762;DHT22;4920;49.594;11.022;2022-08-04T06:58:25;27.30;1.00
9762;DHT22;4920;49.594;11.022;2022-08-04T07:00:54;27.30;1.00
9762;DHT22;4920;49.594;11.022;2022-08-04T07:03:28;27.30;1.00
9762;DHT22;4920;49.594;11.022;2022-08-04T07:05:59;27.30;1.00
9762;DHT22;4920;49.594;11.022;2022-08-04T07:08:34;27.30;1.00
9762;DHT22;4920;49.594;11.022;2022-08-04T07:11:03;27.40;1.00
9762;DHT22;4920;49.594;11.022;2022-08-04T07:13:32;27.40;1.00
9762;DHT22;4920;49.594;11.022;2022-08-04T07:16:01;27.40;1.00
9762;DHT22;4920;49.594;11.022;2022-08-04T07:18:30;27.50;1.00
9762;DHT22;4920;49.594;11.022;2022-08-04T07:21:00;27.60;1.00
9762;DHT22;4920;49.594;11.022;2022-08-04T07:23:28;27.60;1.00
9762;DHT22;4920;49.594;11.022;2022-08-04T07:25:57;27.70;1.00
9762;DHT22;4920;49.594;11.022;2022-08-04T07:28:40;27.80;1.00
9762;DHT22;4920;49.594;11.022;2022-08-04T07:31:14;27.90;1.00
9762;DHT22;4920;49.594;11.022;2022-08-04T07:34:01;27.90;1.00
9762;DHT22;4920;49.594;11.022;2022-08-04T07:36:50;28.00;1.00
9762;DHT22;4920;49.594;11.022;2022-08-04T07:39:23;28.10;1.00
9762;DHT22;4920;49.594;11.022;2022-08-04T07:41:56;28.10;1.00
9762;DHT22;4920;49.594;11.022;2022-08-04T07:44:28;28.20;1.00
9762;DHT22;4920;49.594;11.022;2022-08-04T07:46:58;28.40;1.00
9762;DHT22;4920;49.594;11.022;2022-08-04T07:49:26;28.40;1.00
9762;DHT22;4920;49.594;11.022;2022-08-04T07:52:16;28.60;1.00
9762;DHT22;4920;49.594;11.022;2022-08-04T07:54:45;28.70;1.00
9762;DHT22;4920;49.594;11.022;2022-08-04T07:57:16;28.70;1.00
9762;DHT22;4920;49.594;11.022;2022-08-04T08:00:07;28.90;1.00
9762;DHT22;4920;49.594;11.022;2022-08-04T08:02:38;29.00;1.00
9762;DHT22;4920;49.594;11.022;2022-08-04T08:05:09;29.10;1.00
9762;DHT22;4920;49.594;11.022;2022-08-04T08:07:39;29.30;1.00
9762;DHT22;4920;49.594;11.022;2022-08-04T08:10:20;29.40;1.00
9762;DHT22;4920;49.594;11.022;2022-08-04T08:12:50;29.50;1.00
9762;DHT22;4920;49.594;11.022;2022-08-04T08:15:19;29.50;1.00
9762;DHT22;4920;49.594;11.022;2022-08-04T08:17:47;29.70;1.00
9762;DHT22;4920;49.594;11.022;2022-08-04T08:20:28;29.80;1.00
9762;DHT22;4920;49.594;11.022;2022-08-04T08:23:00;29.90;1.00
9762;DHT22;4920;49.594;11.022;2022-08-04T08:25:30;30.10;1.00
9762;DHT22;4920;49.594;11.022;2022-08-04T08:27:59;30.20;1.00
9762;DHT22;4920;49.594;11.022;2022-08-04T08:30:29;30.40;1.00
9762;DHT22;4920;49.594;11.022;2022-08-04T08:33:05;30.50;1.00
9762;DHT22;4920;49.594;11.022;2022-08-04T08:35:47;30.60;1.00
9762;DHT22;4920;49.594;11.022;2022-08-04T08:38:39;30.70;1.00
9762;DHT22;4920;49.594;11.022;2022-08-04T08:41:28;30.90;1.00
9762;DHT22;4920;49.594;11.022;2022-08-04T08:44:46;31.00;1.00
9762;DHT22;4920;49.594;11.022;2022-08-04T08:47:34;31.10;1.00
9762;DHT22;4920;49.594;11.022;2022-08-04T08:50:53;31.30;1.00
9762;DHT22;4920;49.594;11.022;2022-08-04T08:53:50;31.30;1.00
9762;DHT22;4920;49.594;11.022;2022-08-04T08:56:31;31.40;1.00
9762;DHT22;4920;49.594;11.022;2022-08-04T08:59:14;31.50;1.00
9762;DHT22;4920;49.594;11.022;2022-08-04T09:01:57;31.60;1.00
9762;DHT22;4920;49.594;11.022;2022-08-04T09:04:51;31.70;1.00
9762;DHT22;4920;49.594;11.022;2022-08-04T09:07:36;31.80;1.00
9762;DHT22;4920;49.594;11.022;2022-08-04T09:10:11;31.90;1.00
9762;DHT22;4920;49.594;11.022;2022-08-04T09:12:49;32.00;1.00
9762;DHT22;4920;49.594;11.022;2022-08-04T09:15:24;32.20;1.00
9762;DHT22;4920;49.594;11.022;2022-08-04T09:18:00;32.30;1.00
9762;DHT22;4920;49.594;11.022;2022-08-04T09:20:33;32.40;1.00
9762;DHT22;4920;49.594;11.022;2022-08-04T09:23:19;32.50;1.00
9762;DHT22;4920;49.594;11.022;2022-08-04T09:25:53;32.50;1.00
9762;DHT22;4920;49.594;11.022;2022-08-04T09:28:25;32.70;1.00
9762;DHT22;4920;49.594;11.022;2022-08-04T09:31:17;32.80;1.00
9762;DHT22;4920;49.594;11.022;2022-08-04T09:33:54;32.80;1.00
9762;DHT22;4920;49.594;11.022;2022-08-04T09:36:34;33.00;1.00
9762;DHT22;4920;49.594;11.022;2022-08-04T09:39:13;33.10;1.00
9762;DHT22;4920;49.594;11.022;2022-08-04T09:42:00;33.20;1.00
9762;DHT22;4920;49.594;11.022;2022-08-04T09:44:39;33.30;1.00
9762;DHT22;4920;49.594;11.022;2022-08-04T09:47:25;33.30;1.00
9762;DHT22;4920;49.594;11.022;2022-08-04T09:50:25;33.40;1.00
9762;DHT22;4920;49.594;11.022;2022-08-04T09:53:05;33.50;1.00
9762;DHT22;4920;49.594;11.022;2022-08-04T09:55:44;33.50;1.00
9762;DHT22;4920;49.594;11.022;2022-08-04T09:58:31;33.60;1.00
9762;DHT22;4920;49.594;11.022;2022-08-04T10:01:08;33.60;1.00
9762;DHT22;4920;49.594;11.022;2022-08-04T10:03:40;33.70;1.00
9762;DHT22;4920;49.594;11.022;2022-08-04T10:06:30;33.80;1.00
9762;DHT22;4920;49.594;11.022;2022-08-04T10:09:11;33.80;1.00
9762;DHT22;4920;49.594;11.022;2022-08-04T10:11:52;33.90;1.00
9762;DHT22;4920;49.594;11.022;2022-08-04T10:14:36;34.00;1.00
9762;DHT22;4920;49.594;11.022;2022-08-04T10:17:15;34.00;1.00
9762;DHT22;4920;49.594;11.022;2022-08-04T10:20:01;34.10;1.00
9762;DHT22;4920;49.594;11.022;2022-08-04T10:22:35;34.10;1.00
9762;DHT22;4920;49.594;11.022;2022-08-04T10:25:33;34.10;1.00
9762;DHT22;4920;49.594;11.022;2022-08-04T10:28:27;34.00;1.00
9762;DHT22;4920;49.594;11.022;2022-08-04T10:31:02;34.00;1.00
9762;DHT22;4920;49.594;11.022;2022-08-04T10:33:36;34.10;1.00
9762;DHT22;4920;49.594;11.022;2022-08-04T10:36:09;34.20;1.00
9762;DHT22;4920;49.594;11.022;2022-08-04T10:38:51;34.30;1.00
9762;DHT22;4920;49.594;11.022;2022-08-04T10:41:29;34.40;1.00
9762;DHT22;4920;49.594;11.022;2022-08-04T10:44:05;34.40;1.00
9762;DHT22;4920;49.594;11.022;2022-08-04T10:46:46;34.50;1.00
9762;DHT22;4920;49.594;11.022;2022-08-04T10:49:22;34.60;1.00
9762;DHT22;4920;49.594;11.022;2022-08-04T10:51:54;34.70;1.00
9762;DHT22;4920;49.594;11.022;2022-08-04T10:54:30;34.80;1.00
9762;DHT22;4920;49.594;11.022;2022-08-04T10:57:06;34.70;1.00
9762;DHT22;4920;49.594;11.022;2022-08-04T10:59:39;34.80;1.00
9762;DHT22;4920;49.594;11.022;2022-08-04T11:02:24;34.90;1.00
9762;DHT22;4920;49.594;11.022;2022-08-04T11:05:00;34.90;1.00
9762;DHT22;4920;49.594;11.022;2022-08-04T11:07:35;34.80;1.00
9762;DHT22;4920;49.594;11.022;2022-08-04T11:10:06;34.80;1.00
9762;DHT22;4920;49.594;11.022;2022-08-04T11:12:37;34.90;1.00
9762;DHT22;4920;49.594;11.022;2022-08-04T11:15:10;34.90;1.00
9762;DHT22;4920;49.594;11.022;2022-08-04T11:17:47;34.90;1.00
9762;DHT22;4920;49.594;11.022;2022-08-04T11:20:27;35.00;1.00
9762;DHT22;4920;49.594;11.022;2022-08-04T11:23:05;35.00;1.00
9762;DHT22;4920;49.594;11.022;2022-08-04T11:25:41;35.00;1.00
9762;DHT22;4920;49.594;11.022;2022-08-04T11:28:23;35.10;1.00
9762;DHT22;4920;49.594;11.022;2022-08-04T11:31:03;35.00;1.00
9762;DHT22;4920;49.594;11.022;2022-08-04T11:33:44;35.20;1.00
9762;DHT22;4920;49.594;11.022;2022-08-04T11:36:19;35.30;1.00
9762;DHT22;4920;49.594;11.022;2022-08-04T11:38:55;35.30;1.00
9762;DHT22;4920;49.594;11.022;2022-08-04T11:41:36;35.40;1.00
9762;DHT22;4920;49.594;11.022;2022-08-04T11:44:06;35.40;1.00
9762;DHT22;4920;49.594;11.022;2022-08-04T11:46:42;35.40;1.00
9762;DHT22;4920;49.594;11.022;2022-08-04T11:49:20;35.50;1.00
9762;DHT22;4920;49.594;11.022;2022-08-04T11:51:52;35.50;1.00
9762;DHT22;4920;49.594;11.022;2022-08-04T11:54:23;35.60;1.00
9762;DHT22;4920;49.594;11.022;2022-08-04T11:56:51;35.60;1.00
9762;DHT22;4920;49.594;11.022;2022-08-04T11:59:22;35.70;1.00
9762;DHT22;4920;49.594;11.022;2022-08-04T12:02:05;35.70;1.00
9762;DHT22;4920;49.594;11.022;2022-08-04T12:04:44;35.70;1.00
9762;DHT22;4920;49.594;11.022;2022-08-04T12:07:20;35.90;1.00
9762;DHT22;4920;49.594;11.022;2022-08-04T12:10:08;35.90;1.00
9762;DHT22;4920;49.594;11.022;2022-08-04T12:12:57;35.90;1.00
9762;DHT22;4920;49.594;11.022;2022-08-04T12:15:35;35.90;1.00
9762;DHT22;4920;49.594;11.022;2022-08-04T12:18:09;35.90;1.00
9762;DHT22;4920;49.594;11.022;2022-08-04T12:20:48;35.90;1.00
9762;DHT22;4920;49.594;11.022;2022-08-04T12:23:23;36.10;1.00
9762;DHT22;4920;49.594;11.022;2022-08-04T12:25:56;36.10;1.00
9762;DHT22;4920;49.594;11.022;2022-08-04T12:28:30;36.10;1.00
9762;DHT22;4920;49.594;11.022;2022-08-04T12:31:24;36.20;1.00
9762;DHT22;4920;49.594;11.022;2022-08-04T12:33:57;36.20;1.00
9762;DHT22;4920;49.594;11.022;2022-08-04T12:36:37;36.30;1.00
9762;DHT22;4920;49.594;11.022;2022-08-04T12:39:10;36.40;1.00
9762;DHT22;4920;49.594;11.022;2022-08-04T12:41:44;36.40;1.00
9762;DHT22;4920;49.594;11.022;2022-08-04T12:44:15;36.30;1.00
9762;DHT22;4920;49.594;11.022;2022-08-04T12:47:07;36.30;1.00
9762;DHT22;4920;49.594;11.022;2022-08-04T12:50:00;36.30;1.00
9762;DHT22;4920;49.594;11.022;2022-08-04T12:52:42;36.30;1.00
9762;DHT22;4920;49.594;11.022;2022-08-04T12:55:31;36.40;1.00
9762;DHT22;4920;49.594;11.022;2022-08-04T12:58:02;36.50;1.00
9762;DHT22;4920;49.594;11.022;2022-08-04T13:00:39;36.50;1.00
9762;DHT22;4920;49.594;11.022;2022-08-04T13:03:10;36.50;1.00
9762;DHT22;4920;49.594;11.022;2022-08-04T13:05:40;36.50;1.00
9762;DHT22;4920;49.594;11.022;2022-08-04T13:08:12;36.60;1.00
9762;DHT22;4920;49.594;11.022;2022-08-04T13:10:43;36.70;1.00
9762;DHT22;4920;49.594;11.022;2022-08-04T13:13:16;36.70;1.00
9762;DHT22;4920;49.594;11.022;2022-08-04T13:15:54;36.60;1.00
9762;DHT22;4920;49.594;11.022;2022-08-04T13:18:25;36.70;1.00
9762;DHT22;4920;49.594;11.022;2022-08-04T13:21:10;36.70;1.00
9762;DHT22;4920;49.594;11.022;2022-08-04T13:23:51;36.90;1.00
9762;DHT22;4920;49.594;11.022;2022-08-04T13:26:49;36.90;1.00
9762;DHT22;4920;49.594;11.022;2022-08-04T13:29:24;36.80;1.00
9762;DHT22;4920;49.594;11.022;2022-08-04T13:32:15;36.80;1.00
9762;DHT22;4920;49.594;11.022;2022-08-04T13:34:45;36.70;1.00
9762;DHT22;4920;49.594;11.022;2022-08-04T13:37:22;36.70;1.00
9762;DHT22;4920;49.594;11.022;2022-08-04T13:39:54;36.60;1.00
9762;DHT22;4920;49.594;11.022;2022-08-04T13:42:25;36.50;1.00
9762;DHT22;4920;49.594;11.022;2022-08-04T13:44:56;36.60;1.00
9762;DHT22;4920;49.594;11.022;2022-08-04T13:47:28;36.60;1.00
9762;DHT22;4920;49.594;11.022;2022-08-04T13:50:13;36.60;1.00
9762;DHT22;4920;49.594;11.022;2022-08-04T13:52:43;36.60;1.00
9762;DHT22;4920;49.594;11.022;2022-08-04T13:55:25;36.70;1.00
9762;DHT22;4920;49.594;11.022;2022-08-04T13:58:01;36.70;1.00
9762;DHT22;4920;49.594;11.022;2022-08-04T14:00:44;36.80;1.00
9762;DHT22;4920;49.594;11.022;2022-08-04T14:03:21;36.80;1.00
9762;DHT22;4920;49.594;11.022;2022-08-04T14:06:09;36.90;1.00
9762;DHT22;4920;49.594;11.022;2022-08-04T14:08:46;36.70;1.00
9762;DHT22;4920;49.594;11.022;2022-08-04T14:11:18;36.70;1.00
9762;DHT22;4920;49.594;11.022;2022-08-04T14:14:14;36.60;1.00
9762;DHT22;4920;49.594;11.022;2022-08-04T14:17:01;36.50;1.00
9762;DHT22;4920;49.594;11.022;2022-08-04T14:19:52;36.50;1.00
9762;DHT22;4920;49.594;11.022;2022-08-04T14:22:33;36.50;1.00
9762;DHT22;4920;49.594;11.022;2022-08-04T14:25:05;36.40;1.00
9762;DHT22;4920;49.594;11.022;2022-08-04T14:27:48;36.50;1.00
9762;DHT22;4920;49.594;11.022;2022-08-04T14:30:22;36.50;1.00
9762;DHT22;4920;49.594;11.022;2022-08-04T14:32:56;36.50;1.00
9762;DHT22;4920;49.594;11.022;2022-08-04T14:35:25;36.60;1.00
9762;DHT22;4920;49.594;11.022;2022-08-04T14:38:13;36.60;1.00
9762;DHT22;4920;49.594;11.022;2022-08-04T14:40:41;36.70;1.00
9762;DHT22;4920;49.594;11.022;2022-08-04T14:43:16;36.70;1.00
9762;DHT22;4920;49.594;11.022;2022-08-04T14:45:44;36.70;1.00
9762;DHT22;4920;49.594;11.022;2022-08-04T14:48:21;36.70;1.00
9762;DHT22;4920;49.594;11.022;2022-08-04T14:50:50;36.70;1.00
9762;DHT22;4920;49.594;11.022;2022-08-04T14:53:20;36.60;1.00
9762;DHT22;4920;49.594;11.022;2022-08-04T14:55:50;36.60;1.00
9762;DHT22;4920;49.594;11.022;2022-08-04T14:58:21;36.70;1.00
9762;DHT22;4920;49.594;11.022;2022-08-04T15:01:05;36.70;1.00
9762;DHT22;4920;49.594;11.022;2022-08-04T15:03:39;36.70;1.00
9762;DHT22;4920;49.594;11.022;2022-08-04T15:06:20;36.70;1.00
9762;DHT22;4920;49.594;11.022;2022-08-04T15:08:51;36.70;1.00
9762;DHT22;4920;49.594;11.022;2022-08-04T15:11:19;36.70;1.00
9762;DHT22;4920;49.594;11.022;2022-08-04T15:13:51;36.70;1.00
9762;DHT22;4920;49.594;11.022;2022-08-04T15:16:21;36.70;1.00
9762;DHT22;4920;49.594;11.022;2022-08-04T15:18:50;36.80;1.00
9762;DHT22;4920;49.594;11.022;2022-08-04T15:21:21;36.80;1.00
9762;DHT22;4920;49.594;11.022;2022-08-04T15:23:49;36.70;1.00
9762;DHT22;4920;49.594;11.022;2022-08-04T15:26:24;36.70;1.00
9762;DHT22;4920;49.594;11.022;2022-08-04T15:28:59;36.60;1.00
9762;DHT22;4920;49.594;11.022;2022-08-04T15:31:29;36.60;1.00
9762;DHT22;4920;49.594;11.022;2022-08-04T15:34:24;36.50;1.00
9762;DHT22;4920;49.594;11.022;2022-08-04T15:36:56;36.50;1.00
9762;DHT22;4920;49.594;11.022;2022-08-04T15:39:33;36.40;1.00
9762;DHT22;4920;49.594;11.022;2022-08-04T15:42:13;36.40;1.00
9762;DHT22;4920;49.594;11.022;2022-08-04T15:45:14;36.40;1.00
9762;DHT22;4920;49.594;11.022;2022-08-04T15:51:09;36.30;1.00
9762;DHT22;4920;49.594;11.022;2022-08-04T15:56:50;36.20;1.00
9762;DHT22;4920;49.594;11.022;2022-08-04T15:59:54;36.10;1.00
9762;DHT22;4920;49.594;11.022;2022-08-04T16:02:37;36.10;1.00
9762;DHT22;4920;49.594;11.022;2022-08-04T16:05:36;36.00;1.00
9762;DHT22;4920;49.594;11.022;2022-08-04T16:08:13;36.00;1.00
9762;DHT22;4920;49.594;11.022;2022-08-04T16:10:45;35.90;1.00
9762;DHT22;4920;49.594;11.022;2022-08-04T16:13:14;35.90;1.00
9762;DHT22;4920;49.594;11.022;2022-08-04T16:15:48;35.90;1.00
9762;DHT22;4920;49.594;11.022;2022-08-04T16:18:39;35.80;1.00
9762;DHT22;4920;49.594;11.022;2022-08-04T16:21:21;35.80;1.00
9762;DHT22;4920;49.594;11.022;2022-08-04T16:24:16;35.80;1.00
9762;DHT22;4920;49.594;11.022;2022-08-04T16:26:53;35.80;1.00
9762;DHT22;4920;49.594;11.022;2022-08-04T16:29:32;35.80;1.00
9762;DHT22;4920;49.594;11.022;2022-08-04T16:32:19;35.80;1.00
9762;DHT22;4920;49.594;11.022;2022-08-04T16:34:52;35.80;1.00
9762;DHT22;4920;49.594;11.022;2022-08-04T16:37:28;35.70;1.00
9762;DHT22;4920;49.594;11.022;2022-08-04T16:43:07;35.50;1.00
9762;DHT22;4920;49.594;11.022;2022-08-04T16:45:44;35.40;1.00
9762;DHT22;4920;49.594;11.022;2022-08-04T16:48:12;35.30;1.00
9762;DHT22;4920;49.594;11.022;2022-08-04T16:51:05;35.30;1.00
9762;DHT22;4920;49.594;11.022;2022-08-04T16:53:37;35.30;1.00
9762;DHT22;4920;49.594;11.022;2022-08-04T16:56:30;35.30;1.00
9762;DHT22;4920;49.594;11.022;2022-08-04T16:59:05;35.40;1.00
9762;DHT22;4920;49.594;11.022;2022-08-04T17:01:35;35.50;1.00
9762;DHT22;4920;49.594;11.022;2022-08-04T17:04:29;35.60;1.00
9762;DHT22;4920;49.594;11.022;2022-08-04T17:07:01;36.00;1.00
9762;DHT22;4920;49.594;11.022;2022-08-04T17:09:30;36.60;1.00
9762;DHT22;4920;49.594;11.022;2022-08-04T17:11:58;37.50;1.00
9762;DHT22;4920;49.594;11.022;2022-08-04T17:14:29;38.70;1.00
9762;DHT22;4920;49.594;11.022;2022-08-04T17:16:59;39.90;1.00
9762;DHT22;4920;49.594;11.022;2022-08-04T17:19:30;41.00;1.00
9762;DHT22;4920;49.594;11.022;2022-08-04T17:22:02;42.10;1.00
9762;DHT22;4920;49.594;11.022;2022-08-04T17:24:37;43.00;1.00
9762;DHT22;4920;49.594;11.022;2022-08-04T17:27:06;43.40;1.00
9762;DHT22;4920;49.594;11.022;2022-08-04T17:29:55;43.80;1.00
9762;DHT22;4920;49.594;11.022;2022-08-04T17:32:24;44.00;1.00
9762;DHT22;4920;49.594;11.022;2022-08-04T17:34:54;43.60;1.00
9762;DHT22;4920;49.594;11.022;2022-08-04T17:37:25;43.50;1.00
9762;DHT22;4920;49.594;11.022;2022-08-04T17:40:10;43.30;1.00
9762;DHT22;4920;49.594;11.022;2022-08-04T17:46:38;42.40;1.00
9762;DHT22;4920;49.594;11.022;2022-08-04T17:49:10;42.00;1.00
9762;DHT22;4920;49.594;11.022;2022-08-04T17:51:48;41.80;1.00